Live aus Altenrhein
LIVE
LSZR 280120Z AUTO 29012KT 9999 OVC002 22/17 Q1003

People´s Info Center:

Öffnungszeiten Mo-Fr, 8-18 Uhr

 

info@peoples.ch

 
Aus Österreich:

T: +43 (0)5572 203 610

 

Aus CH / LI / DE:

T: +41 (0)71 858 51 60

 

Webcam Flughafen St.Gallen-Altenrhein

Live-Bilder und Zeitraffer LSZR / ACH.

 

Live aus Altenrhein
LIVE
LSZR 280120Z AUTO 29012KT 9999 OVC002 22/17 Q1003
Zeitraffer heute
2017-06-28 00:14:58
LSZR 272150Z AUTO 11005KT 9999 OVC002 21/17 Q1004
Zeitraffer gestern
2017-06-27 00:00:01
LSZR 262150Z AUTO 25007KT 170V320 9999 -RA OVC037 OVC050 21/15 Q1013
Zeitraffer vor 3 Tagen
2017-06-25 00:13:54
LSZR 242150Z AUTO VRB02KT CAVOK 20/16 Q1017